Time;durP1;ratioP1;P1;durP2;ratioP2;P2;SDS_P1;SDS_P2;PMS_P1;PMS_P2;Temp;Humidity;BMP_temperature;BMP_pressure;BME280_temperature;BME280_humidity;BME280_pressure;Samples;Min_cycle;Max_cycle;Signal;HPM_P1;HPM_P2
2020/12/10 00:00:24;;;;;;;83.50;40.27;;;;;;;;;;2081304;28;20649;-52
2020/12/10 00:01:24;;;;;;;88.00;42.43;;;;;;;;;;2083336;28;20207;-51
2020/12/10 00:02:28;;;;;;;83.67;41.97;;;;;;;;;;2082405;28;20610;-55
2020/12/10 00:03:28;;;;;;;89.50;42.23;;;;;;;;;;2074283;28;20177;-53
2020/12/10 00:04:28;;;;;;;78.47;40.27;;;;;;;;;;2075555;28;20672;-52
2020/12/10 00:05:29;;;;;;;95.57;45.03;;;;;;;;;;2064127;28;20201;-52
2020/12/10 00:06:29;;;;;;;85.80;41.87;;;;;;;;;;2074601;28;20251;-53
2020/12/10 00:07:29;;;;;;;87.77;40.80;;;;;;;;;;2074781;28;20559;-55
2020/12/10 00:08:29;;;;;;;96.67;43.40;;;;;;;;;;2073498;28;20633;-53
2020/12/10 00:09:30;;;;;;;91.40;43.37;;;;;;;;;;2082284;28;20173;-55
2020/12/10 00:10:31;;;;;;;92.57;42.30;;;;;;;;;;2077603;28;20579;-55
2020/12/10 00:11:35;;;;;;;96.23;44.07;;;;;;;;;;2079722;28;20668;-55
2020/12/10 00:12:42;;;;;;;85.67;40.93;;;;;;;;;;2078813;28;20192;-56
2020/12/10 00:13:43;;;;;;;85.73;41.77;;;;;;;;;;2079150;28;20211;-55
2020/12/10 00:14:43;;;;;;;98.47;42.57;;;;;;;;;;2082097;28;20206;-54
2020/12/10 00:15:43;;;;;;;84.73;42.23;;;;;;;;;;2072868;28;20177;-54
2020/12/10 00:16:46;;;;;;;87.27;41.17;;;;;;;;;;2068612;28;20193;-53
2020/12/10 00:17:47;;;;;;;86.23;41.40;;;;;;;;;;2074181;28;20173;-56
2020/12/10 00:18:47;;;;;;;84.37;41.63;;;;;;;;;;2081509;28;20599;-55
2020/12/10 00:19:47;;;;;;;86.70;42.60;;;;;;;;;;2083285;28;20530;-54
2020/12/10 00:20:48;;;;;;;88.30;42.87;;;;;;;;;;2081518;28;20691;-56
2020/12/10 00:21:48;;;;;;;90.37;43.37;;;;;;;;;;2071681;28;20185;-53
2020/12/10 00:22:48;;;;;;;97.60;44.60;;;;;;;;;;2073841;28;20180;-56
2020/12/10 00:23:49;;;;;;;85.50;40.70;;;;;;;;;;2073043;28;20742;-54
2020/12/10 00:24:49;;;;;;;91.37;43.17;;;;;;;;;;2076084;28;20176;-55
2020/12/10 00:25:49;;;;;;;82.50;40.73;;;;;;;;;;2081391;28;20621;-57
2020/12/10 00:26:50;;;;;;;87.17;42.90;;;;;;;;;;2082019;28;20176;-55
2020/12/10 00:27:50;;;;;;;84.70;40.67;;;;;;;;;;2072279;28;20254;-56
2020/12/10 00:28:50;;;;;;;89.63;43.37;;;;;;;;;;2072659;28;20652;-56
2020/12/10 00:29:51;;;;;;;88.00;42.17;;;;;;;;;;2081474;28;20572;-56
2020/12/10 00:30:51;;;;;;;88.50;43.00;;;;;;;;;;2081919;28;20226;-58
2020/12/10 00:31:51;;;;;;;80.60;40.47;;;;;;;;;;2070666;28;20266;-58
2020/12/10 00:32:52;;;;;;;77.63;39.57;;;;;;;;;;2072815;28;20188;-53
2020/12/10 00:33:52;;;;;;;81.20;39.60;;;;;;;;;;2080663;28;20222;-53
2020/12/10 00:34:55;;;;;;;77.13;40.43;;;;;;;;;;2081084;28;20658;-58
2020/12/10 00:35:55;;;;;;;75.20;38.40;;;;;;;;;;2081798;28;20680;-53
2020/12/10 00:36:56;;;;;;;80.97;37.93;;;;;;;;;;2081006;28;20164;-55
2020/12/10 00:37:56;;;;;;;76.03;38.20;;;;;;;;;;2081088;28;20187;-55
2020/12/10 00:38:56;;;;;;;77.50;39.97;;;;;;;;;;2081529;28;20190;-53
2020/12/10 00:39:56;;;;;;;76.93;38.97;;;;;;;;;;2079711;28;20192;-54
2020/12/10 00:40:57;;;;;;;79.77;40.63;;;;;;;;;;2081623;28;20255;-57
2020/12/10 00:41:57;;;;;;;82.57;40.27;;;;;;;;;;2080005;28;20740;-54
2020/12/10 00:42:57;;;;;;;79.33;40.20;;;;;;;;;;2071776;28;20204;-53
2020/12/10 00:43:57;;;;;;;72.60;37.57;;;;;;;;;;2072950;28;20260;-56
2020/12/10 00:44:58;;;;;;;73.13;39.33;;;;;;;;;;2079920;28;20169;-56
2020/12/10 00:46:03;;;;;;;74.00;37.37;;;;;;;;;;2080303;28;20672;-55
2020/12/10 00:47:03;;;;;;;74.77;38.53;;;;;;;;;;2081744;28;20527;-56
2020/12/10 00:48:04;;;;;;;75.90;39.27;;;;;;;;;;2074176;28;20421;-52
2020/12/10 00:49:05;;;;;;;73.87;38.63;;;;;;;;;;2068866;28;20616;-54
2020/12/10 00:50:05;;;;;;;75.13;38.40;;;;;;;;;;2073425;28;20226;-53
2020/12/10 00:51:07;;;;;;;75.07;37.87;;;;;;;;;;2073034;28;20215;-53
2020/12/10 00:52:07;;;;;;;77.23;38.57;;;;;;;;;;2072703;28;20237;-55
2020/12/10 00:53:08;;;;;;;78.77;38.37;;;;;;;;;;2065048;28;20628;-51
2020/12/10 00:54:09;;;;;;;71.37;38.67;;;;;;;;;;2065918;28;20255;-54
2020/12/10 00:55:09;;;;;;;73.20;38.67;;;;;;;;;;2076205;28;20409;-56
2020/12/10 00:56:11;;;;;;;76.63;39.33;;;;;;;;;;2075588;28;20200;-56
2020/12/10 00:57:11;;;;;;;76.77;38.63;;;;;;;;;;2074601;28;20180;-57
2020/12/10 00:58:11;;;;;;;78.67;39.83;;;;;;;;;;2082433;28;20210;-54
2020/12/10 00:59:11;;;;;;;74.67;38.60;;;;;;;;;;2082066;28;20645;-52
2020/12/10 01:00:12;;;;;;;74.47;38.20;;;;;;;;;;2073709;28;20231;-53
2020/12/10 01:01:12;;;;;;;74.10;38.63;;;;;;;;;;2073984;28;20254;-55
2020/12/10 01:02:12;;;;;;;75.50;39.20;;;;;;;;;;2080521;28;20210;-52
2020/12/10 01:03:13;;;;;;;74.17;37.87;;;;;;;;;;2074813;28;20181;-51
2020/12/10 01:04:13;;;;;;;69.97;37.53;;;;;;;;;;2074482;28;20184;-57
2020/12/10 01:05:13;;;;;;;63.97;36.97;;;;;;;;;;2070392;28;20169;-55
2020/12/10 01:06:14;;;;;;;71.90;38.47;;;;;;;;;;2075370;28;20261;-55
2020/12/10 01:07:14;;;;;;;72.67;37.43;;;;;;;;;;2071447;28;20272;-54
2020/12/10 01:08:15;;;;;;;78.87;37.77;;;;;;;;;;2072926;28;20524;-57
2020/12/10 01:09:15;;;;;;;79.30;38.63;;;;;;;;;;2077209;28;20259;-56
2020/12/10 01:10:15;;;;;;;70.33;37.37;;;;;;;;;;2077556;28;20187;-53
2020/12/10 01:11:16;;;;;;;69.27;38.03;;;;;;;;;;2072942;28;20177;-55
2020/12/10 01:12:16;;;;;;;74.97;38.00;;;;;;;;;;2074533;28;20222;-54
2020/12/10 01:13:16;;;;;;;70.47;36.80;;;;;;;;;;2073311;28;20176;-58
2020/12/10 01:14:18;;;;;;;70.30;38.43;;;;;;;;;;2066813;28;20180;-56
2020/12/10 01:15:18;;;;;;;72.87;37.73;;;;;;;;;;2075125;28;20208;-57
2020/12/10 01:16:18;;;;;;;67.20;37.03;;;;;;;;;;2081848;28;20204;-54
2020/12/10 01:17:18;;;;;;;69.73;37.30;;;;;;;;;;2082130;28;20283;-55
2020/12/10 01:18:19;;;;;;;70.37;37.90;;;;;;;;;;2076129;28;20215;-55
2020/12/10 01:19:19;;;;;;;70.20;37.47;;;;;;;;;;2074097;28;20259;-56
2020/12/10 01:20:19;;;;;;;71.83;37.27;;;;;;;;;;2083148;28;20563;-52
2020/12/10 01:21:26;;;;;;;69.47;39.30;;;;;;;;;;2066447;28;20771;-55
2020/12/10 01:22:26;;;;;;;75.30;36.50;;;;;;;;;;2068790;28;20196;-55
2020/12/10 01:23:26;;;;;;;64.93;35.07;;;;;;;;;;2080702;28;20467;-57
2020/12/10 01:24:27;;;;;;;73.83;38.00;;;;;;;;;;2074704;28;20178;-56
2020/12/10 01:25:27;;;;;;;68.30;36.77;;;;;;;;;;2066504;28;20181;-54
2020/12/10 01:26:29;;;;;;;65.80;36.30;;;;;;;;;;2079523;28;20172;-56
2020/12/10 01:27:29;;;;;;;69.73;37.10;;;;;;;;;;2085748;28;20184;-56
2020/12/10 01:28:29;;;;;;;73.13;37.07;;;;;;;;;;2078582;28;20263;-57
2020/12/10 01:29:30;;;;;;;67.63;37.80;;;;;;;;;;2075254;28;20278;-56
2020/12/10 01:30:30;;;;;;;71.93;37.43;;;;;;;;;;2073335;28;20185;-54
2020/12/10 01:31:31;;;;;;;70.23;37.80;;;;;;;;;;2075735;28;20735;-55
2020/12/10 01:32:31;;;;;;;63.53;35.07;;;;;;;;;;2082657;28;20187;-56
2020/12/10 01:33:31;;;;;;;68.77;35.53;;;;;;;;;;2085039;28;20624;-58
2020/12/10 01:34:31;;;;;;;72.30;36.53;;;;;;;;;;2083936;28;20179;-56
2020/12/10 01:35:31;;;;;;;72.17;37.47;;;;;;;;;;2077194;28;20231;-55
2020/12/10 01:36:32;;;;;;;69.60;37.50;;;;;;;;;;2076769;28;20173;-60
2020/12/10 01:37:32;;;;;;;73.57;38.17;;;;;;;;;;2074759;28;20181;-53
2020/12/10 01:38:32;;;;;;;69.80;36.77;;;;;;;;;;2078532;28;20709;-52
2020/12/10 01:39:33;;;;;;;72.90;37.33;;;;;;;;;;2080911;28;20219;-53
2020/12/10 01:40:33;;;;;;;70.90;36.70;;;;;;;;;;2082924;28;20180;-56
2020/12/10 01:41:33;;;;;;;70.40;38.03;;;;;;;;;;2074017;28;20270;-52
2020/12/10 01:42:35;;;;;;;69.50;37.33;;;;;;;;;;2071546;28;20223;-53
2020/12/10 01:43:35;;;;;;;73.23;39.03;;;;;;;;;;2071012;28;20272;-47
2020/12/10 01:44:36;;;;;;;82.23;40.03;;;;;;;;;;2076578;28;20181;-53
2020/12/10 01:45:36;;;;;;;68.50;37.47;;;;;;;;;;2080550;28;20172;-56
2020/12/10 01:46:37;;;;;;;67.37;36.53;;;;;;;;;;2083137;28;20172;-55
2020/12/10 01:47:37;;;;;;;66.33;36.20;;;;;;;;;;2082701;28;20180;-52
2020/12/10 01:48:38;;;;;;;66.50;36.20;;;;;;;;;;2085026;28;20192;-54
2020/12/10 01:49:38;;;;;;;73.87;38.13;;;;;;;;;;2080654;28;20227;-52
2020/12/10 01:50:39;;;;;;;70.67;37.07;;;;;;;;;;2083010;28;20223;-54
2020/12/10 01:51:39;;;;;;;68.20;38.03;;;;;;;;;;2074338;28;20645;-54
2020/12/10 01:52:39;;;;;;;64.60;36.20;;;;;;;;;;2064919;28;20185;-55
2020/12/10 01:53:39;;;;;;;68.63;35.87;;;;;;;;;;2075490;28;20282;-56
2020/12/10 01:54:40;;;;;;;66.70;35.93;;;;;;;;;;2083016;28;20211;-53
2020/12/10 01:55:40;;;;;;;70.87;38.23;;;;;;;;;;2073554;28;20177;-50
2020/12/10 01:56:40;;;;;;;74.37;38.53;;;;;;;;;;2078753;28;20193;-57
2020/12/10 01:57:40;;;;;;;76.23;39.17;;;;;;;;;;2083759;28;20237;-55
2020/12/10 01:58:41;;;;;;;71.80;37.33;;;;;;;;;;2080967;28;20192;-54
2020/12/10 01:59:41;;;;;;;70.97;37.07;;;;;;;;;;2083669;28;20218;-53
2020/12/10 02:00:41;;;;;;;74.40;38.03;;;;;;;;;;2073763;28;20236;-52
2020/12/10 02:01:41;;;;;;;66.33;37.47;;;;;;;;;;2064181;28;20217;-52
2020/12/10 02:02:42;;;;;;;60.57;33.80;;;;;;;;;;2071663;28;20180;-51
2020/12/10 02:03:42;;;;;;;71.30;37.70;;;;;;;;;;2073432;28;20205;-54
2020/12/10 02:04:43;;;;;;;66.47;36.03;;;;;;;;;;2074233;28;20216;-51
2020/12/10 02:05:44;;;;;;;76.87;36.50;;;;;;;;;;2073583;28;20662;-52
2020/12/10 02:06:44;;;;;;;69.90;39.03;;;;;;;;;;2087207;28;20187;-55
2020/12/10 02:07:45;;;;;;;71.70;37.53;;;;;;;;;;2074623;28;20177;-56
2020/12/10 02:08:45;;;;;;;73.00;36.33;;;;;;;;;;2073165;28;20181;-55
2020/12/10 02:09:45;;;;;;;77.63;38.43;;;;;;;;;;2082603;28;20188;-57
2020/12/10 02:10:46;;;;;;;76.43;39.23;;;;;;;;;;2081382;28;20192;-52
2020/12/10 02:11:46;;;;;;;78.50;38.77;;;;;;;;;;2076354;28;20633;-53
2020/12/10 02:12:46;;;;;;;68.40;39.23;;;;;;;;;;2075096;28;20189;-53
2020/12/10 02:13:46;;;;;;;70.67;37.90;;;;;;;;;;2075089;28;20185;-54
2020/12/10 02:14:47;;;;;;;74.23;39.90;;;;;;;;;;2082530;28;20215;-53
2020/12/10 02:15:48;;;;;;;71.50;37.90;;;;;;;;;;2080993;28;20208;-56
2020/12/10 02:16:54;;;;;;;71.67;38.30;;;;;;;;;;2083297;28;20551;-52
2020/12/10 02:17:55;;;;;;;71.93;38.30;;;;;;;;;;2067124;28;20665;-59
2020/12/10 02:18:55;;;;;;;77.30;38.43;;;;;;;;;;2068366;28;20289;-59
2020/12/10 02:19:55;;;;;;;81.97;39.93;;;;;;;;;;2083432;28;20517;-57
2020/12/10 02:20:56;;;;;;;74.40;38.33;;;;;;;;;;2088080;28;20191;-58
2020/12/10 02:21:56;;;;;;;78.27;39.27;;;;;;;;;;2085249;28;20267;-58
2020/12/10 02:23:00;;;;;;;72.83;37.83;;;;;;;;;;2080668;28;20248;-58
2020/12/10 02:24:00;;;;;;;72.17;38.00;;;;;;;;;;2077878;28;20637;-57
2020/12/10 02:25:00;;;;;;;71.93;38.40;;;;;;;;;;2079724;28;20176;-57
2020/12/10 02:26:01;;;;;;;73.70;37.17;;;;;;;;;;2073675;28;20220;-55
2020/12/10 02:27:01;;;;;;;80.23;41.20;;;;;;;;;;2082299;28;20241;-51
2020/12/10 02:28:03;;;;;;;80.90;39.07;;;;;;;;;;2081652;28;20230;-56
2020/12/10 02:29:03;;;;;;;79.77;40.43;;;;;;;;;;2082575;28;20180;-52
2020/12/10 02:30:03;;;;;;;81.47;41.20;;;;;;;;;;2082275;28;20406;-53
2020/12/10 02:31:03;;;;;;;84.03;41.80;;;;;;;;;;2074180;28;20207;-53
2020/12/10 02:32:04;;;;;;;73.03;39.20;;;;;;;;;;2074194;28;20246;-56
2020/12/10 02:33:05;;;;;;;74.97;39.03;;;;;;;;;;2078529;28;20168;-52
2020/12/10 02:34:06;;;;;;;79.90;40.10;;;;;;;;;;2075217;28;20273;-53
2020/12/10 02:35:07;;;;;;;81.93;39.30;;;;;;;;;;2080439;28;20172;-57
2020/12/10 02:36:07;;;;;;;76.60;39.50;;;;;;;;;;2074201;28;20193;-54
2020/12/10 02:37:07;;;;;;;88.53;41.20;;;;;;;;;;2074020;28;20224;-55
2020/12/10 02:38:09;;;;;;;76.47;38.97;;;;;;;;;;2066783;28;20181;-56
2020/12/10 02:39:09;;;;;;;78.57;38.43;;;;;;;;;;2076853;28;20184;-56
2020/12/10 02:40:10;;;;;;;70.00;37.00;;;;;;;;;;2080572;28;20453;-58
2020/12/10 02:41:12;;;;;;;77.00;40.70;;;;;;;;;;2082544;28;20586;-54
2020/12/10 02:42:12;;;;;;;81.63;41.43;;;;;;;;;;2083130;28;20169;-53
2020/12/10 02:43:14;;;;;;;83.00;38.77;;;;;;;;;;2082794;28;20224;-56
2020/12/10 02:44:14;;;;;;;90.63;40.40;;;;;;;;;;2086149;28;20186;-54
2020/12/10 02:45:14;;;;;;;73.87;37.43;;;;;;;;;;2082582;28;20538;-53
2020/12/10 02:46:15;;;;;;;80.63;39.27;;;;;;;;;;2081341;28;20871;-55
2020/12/10 02:47:15;;;;;;;81.83;38.83;;;;;;;;;;2082257;28;20164;-53
2020/12/10 02:48:15;;;;;;;81.10;39.80;;;;;;;;;;2081400;28;20641;-54
2020/12/10 02:49:16;;;;;;;76.77;40.47;;;;;;;;;;2071272;28;20197;-56
2020/12/10 02:50:16;;;;;;;76.07;39.30;;;;;;;;;;2073628;28;20222;-51
2020/12/10 02:51:16;;;;;;;79.13;40.30;;;;;;;;;;2075262;28;20181;-59
2020/12/10 02:52:17;;;;;;;81.30;40.50;;;;;;;;;;2083717;28;20172;-55
2020/12/10 02:53:17;;;;;;;74.23;39.00;;;;;;;;;;2075554;28;20188;-53
2020/12/10 02:54:17;;;;;;;71.20;37.10;;;;;;;;;;2074744;28;20181;-52
2020/12/10 02:55:17;;;;;;;81.63;39.17;;;;;;;;;;2073501;28;20220;-53
2020/12/10 02:56:18;;;;;;;69.67;36.00;;;;;;;;;;2074443;28;20232;-56
2020/12/10 02:57:18;;;;;;;72.87;37.87;;;;;;;;;;2083618;28;20188;-52
2020/12/10 02:58:18;;;;;;;76.00;38.70;;;;;;;;;;2081697;28;20259;-55
2020/12/10 02:59:18;;;;;;;74.33;37.20;;;;;;;;;;2082500;28;20686;-54
2020/12/10 03:00:19;;;;;;;80.60;40.43;;;;;;;;;;2081514;28;20188;-56
2020/12/10 03:01:19;;;;;;;73.83;37.93;;;;;;;;;;2073758;28;20208;-56
2020/12/10 03:02:19;;;;;;;69.57;38.13;;;;;;;;;;2076394;28;20185;-57
2020/12/10 03:03:19;;;;;;;76.87;38.17;;;;;;;;;;2069626;28;20555;-56
2020/12/10 03:04:20;;;;;;;73.73;37.00;;;;;;;;;;2073218;28;20227;-55
2020/12/10 03:05:20;;;;;;;75.23;38.80;;;;;;;;;;2082816;28;20180;-57
2020/12/10 03:06:20;;;;;;;75.27;39.30;;;;;;;;;;2086368;28;20739;-53
2020/12/10 03:07:20;;;;;;;70.37;40.00;;;;;;;;;;2084515;28;20176;-55
2020/12/10 03:08:21;;;;;;;79.67;38.90;;;;;;;;;;2081607;28;20600;-58
2020/12/10 03:09:21;;;;;;;70.00;38.00;;;;;;;;;;2073906;28;20621;-58
2020/12/10 03:10:21;;;;;;;74.27;40.33;;;;;;;;;;2073125;28;20618;-54
2020/12/10 03:11:21;;;;;;;72.73;38.53;;;;;;;;;;2082612;28;20188;-55
2020/12/10 03:12:22;;;;;;;75.13;37.07;;;;;;;;;;2074176;28;20248;-57
2020/12/10 03:13:22;;;;;;;72.43;38.07;;;;;;;;;;2065273;28;20658;-54
2020/12/10 03:14:22;;;;;;;77.47;39.03;;;;;;;;;;2078644;28;20554;-57
2020/12/10 03:15:22;;;;;;;70.70;39.20;;;;;;;;;;2072722;28;20263;-55
2020/12/10 03:16:23;;;;;;;73.73;39.10;;;;;;;;;;2095078;23;20366;-53
2020/12/10 03:17:23;;;;;;;74.27;38.47;;;;;;;;;;2081098;28;20188;-50
2020/12/10 03:18:25;;;;;;;80.67;40.47;;;;;;;;;;2088306;28;20215;-55
2020/12/10 03:19:25;;;;;;;75.90;39.50;;;;;;;;;;2090288;28;20555;-54
2020/12/10 03:20:25;;;;;;;77.70;40.03;;;;;;;;;;2081452;28;20260;-52
2020/12/10 03:21:26;;;;;;;81.40;38.77;;;;;;;;;;2081077;28;20259;-55
2020/12/10 03:22:26;;;;;;;85.20;39.37;;;;;;;;;;2088894;28;20206;-55
2020/12/10 03:23:26;;;;;;;87.47;40.93;;;;;;;;;;2090640;28;20182;-54
2020/12/10 03:24:26;;;;;;;80.73;38.40;;;;;;;;;;2090356;28;20184;-51
2020/12/10 03:25:27;;;;;;;79.33;41.20;;;;;;;;;;2089684;28;20176;-55
2020/12/10 03:26:27;;;;;;;81.77;40.10;;;;;;;;;;2086451;28;20382;-53
2020/12/10 03:27:27;;;;;;;84.90;40.70;;;;;;;;;;2088366;28;20263;-57
2020/12/10 03:28:27;;;;;;;78.87;39.90;;;;;;;;;;2087904;28;20183;-57
2020/12/10 03:29:28;;;;;;;78.20;40.10;;;;;;;;;;2089180;28;20183;-56
2020/12/10 03:30:28;;;;;;;83.03;41.53;;;;;;;;;;2088824;28;20540;-57
2020/12/10 03:31:28;;;;;;;80.90;40.37;;;;;;;;;;2089576;28;20548;-56
2020/12/10 03:32:28;;;;;;;80.03;39.23;;;;;;;;;;2085344;28;20191;-55
2020/12/10 03:33:29;;;;;;;80.80;39.40;;;;;;;;;;2090872;28;20171;-56
2020/12/10 03:34:29;;;;;;;79.63;40.23;;;;;;;;;;2088323;28;20176;-56
2020/12/10 03:35:29;;;;;;;79.40;40.90;;;;;;;;;;2090579;28;20187;-55
2020/12/10 03:36:44;;;;;;;76.00;38.53;;;;;;;;;;2088237;28;20195;-52
2020/12/10 03:37:44;;;;;;;74.60;38.80;;;;;;;;;;2088288;28;20565;-56
2020/12/10 03:38:44;;;;;;;80.27;39.33;;;;;;;;;;2091234;28;20416;-54
2020/12/10 03:39:45;;;;;;;80.63;38.97;;;;;;;;;;2081703;28;20180;-58
2020/12/10 03:40:45;;;;;;;80.57;40.33;;;;;;;;;;2078499;28;20189;-55
2020/12/10 03:41:46;;;;;;;81.87;41.37;;;;;;;;;;2084567;28;20215;-54
2020/12/10 03:42:46;;;;;;;81.20;38.90;;;;;;;;;;2080886;28;20180;-54
2020/12/10 03:43:46;;;;;;;77.10;41.80;;;;;;;;;;2081264;28;20185;-53
2020/12/10 03:44:46;;;;;;;79.27;39.83;;;;;;;;;;2090771;28;20191;-53
2020/12/10 03:45:46;;;;;;;75.20;39.37;;;;;;;;;;2080509;28;20182;-56
2020/12/10 03:46:47;;;;;;;75.53;39.37;;;;;;;;;;2078582;28;20212;-53
2020/12/10 03:47:47;;;;;;;79.47;39.63;;;;;;;;;;2085786;28;20177;-56
2020/12/10 03:48:47;;;;;;;80.30;40.83;;;;;;;;;;2090538;28;20522;-55
2020/12/10 03:49:49;;;;;;;85.57;41.37;;;;;;;;;;2080649;28;20607;-55
2020/12/10 03:50:50;;;;;;;78.13;39.27;;;;;;;;;;2078139;28;20238;-57
2020/12/10 03:51:50;;;;;;;88.43;42.87;;;;;;;;;;2089397;28;20191;-57
2020/12/10 03:52:50;;;;;;;82.57;39.80;;;;;;;;;;2090298;28;20179;-53
2020/12/10 03:53:50;;;;;;;86.73;40.77;;;;;;;;;;2088008;28;20262;-54
2020/12/10 03:54:51;;;;;;;82.17;41.70;;;;;;;;;;2090074;28;20257;-56
2020/12/10 03:55:51;;;;;;;84.00;41.67;;;;;;;;;;2088655;28;20191;-57
2020/12/10 03:56:51;;;;;;;81.20;40.47;;;;;;;;;;2089511;28;20199;-55
2020/12/10 03:57:51;;;;;;;82.40;40.93;;;;;;;;;;2090457;28;20196;-54
2020/12/10 03:58:51;;;;;;;96.13;44.20;;;;;;;;;;2087811;28;20180;-53
2020/12/10 03:59:52;;;;;;;81.30;41.20;;;;;;;;;;2077534;28;20188;-53
2020/12/10 04:00:52;;;;;;;75.10;38.00;;;;;;;;;;2069200;28;20217;-55
2020/12/10 04:01:52;;;;;;;80.47;37.93;;;;;;;;;;2077273;28;20176;-57
2020/12/10 04:02:53;;;;;;;80.67;40.90;;;;;;;;;;2081483;28;20196;-56
2020/12/10 04:03:53;;;;;;;79.13;40.17;;;;;;;;;;2089191;28;20179;-56
2020/12/10 04:04:53;;;;;;;78.87;39.83;;;;;;;;;;2087945;28;20648;-55
2020/12/10 04:05:53;;;;;;;86.27;42.77;;;;;;;;;;2090355;28;20172;-54
2020/12/10 04:06:53;;;;;;;92.90;42.47;;;;;;;;;;2082134;28;20181;-53
2020/12/10 04:07:54;;;;;;;82.30;39.90;;;;;;;;;;2080725;28;20173;-52
2020/12/10 04:08:54;;;;;;;81.70;41.17;;;;;;;;;;2087537;28;20233;-53
2020/12/10 04:09:54;;;;;;;85.77;41.50;;;;;;;;;;2079988;28;20246;-56
2020/12/10 04:10:54;;;;;;;94.67;44.20;;;;;;;;;;2073025;28;20188;-56
2020/12/10 04:11:55;;;;;;;91.40;42.47;;;;;;;;;;2082231;28;20273;-52
2020/12/10 04:12:55;;;;;;;89.27;41.33;;;;;;;;;;2091513;28;21235;-58
2020/12/10 04:13:55;;;;;;;83.87;42.70;;;;;;;;;;2089459;28;20648;-56
2020/12/10 04:14:55;;;;;;;93.33;43.83;;;;;;;;;;2089097;28;20214;-56
2020/12/10 04:15:56;;;;;;;95.90;43.40;;;;;;;;;;2087773;28;20179;-57
2020/12/10 04:16:56;;;;;;;91.43;41.97;;;;;;;;;;2082059;28;20350;-57
2020/12/10 04:17:56;;;;;;;93.53;43.33;;;;;;;;;;2081337;28;20234;-53
2020/12/10 04:18:56;;;;;;;91.20;43.93;;;;;;;;;;2087830;28;20187;-57
2020/12/10 04:19:57;;;;;;;90.50;42.73;;;;;;;;;;2090955;28;20196;-54
2020/12/10 04:20:57;;;;;;;101.57;42.97;;;;;;;;;;2089504;28;20167;-55
2020/12/10 04:21:57;;;;;;;94.43;42.30;;;;;;;;;;2088069;28;20177;-57
2020/12/10 04:22:57;;;;;;;91.33;44.17;;;;;;;;;;2078097;28;20723;-56
2020/12/10 04:23:58;;;;;;;86.70;42.37;;;;;;;;;;2080001;28;20668;-56
2020/12/10 04:24:58;;;;;;;91.17;41.57;;;;;;;;;;2088974;28;20187;-56
2020/12/10 04:25:58;;;;;;;89.47;43.10;;;;;;;;;;2088976;28;20217;-55
2020/12/10 04:26:58;;;;;;;81.70;40.73;;;;;;;;;;2087624;28;20228;-52
2020/12/10 04:27:58;;;;;;;99.03;42.93;;;;;;;;;;2086188;28;20191;-53
2020/12/10 04:28:59;;;;;;;86.07;41.83;;;;;;;;;;2089586;28;20186;-53
2020/12/10 04:29:59;;;;;;;83.93;41.63;;;;;;;;;;2088625;28;20218;-55
2020/12/10 04:30:59;;;;;;;92.33;41.77;;;;;;;;;;2088113;28;20210;-56
2020/12/10 04:31:59;;;;;;;91.17;41.77;;;;;;;;;;2078709;28;20263;-56
2020/12/10 04:33:00;;;;;;;94.23;42.50;;;;;;;;;;2070319;28;20295;-57
2020/12/10 04:34:00;;;;;;;88.47;42.87;;;;;;;;;;2078899;28;20184;-56
2020/12/10 04:35:00;;;;;;;89.50;41.57;;;;;;;;;;2088463;28;20266;-56
2020/12/10 04:36:01;;;;;;;84.27;40.70;;;;;;;;;;2087346;28;20264;-54
2020/12/10 04:37:01;;;;;;;88.27;41.50;;;;;;;;;;2086797;28;20652;-52
2020/12/10 04:38:02;;;;;;;83.73;40.83;;;;;;;;;;2083857;28;20176;-52
2020/12/10 04:39:03;;;;;;;88.47;42.17;;;;;;;;;;2089139;28;20180;-54
2020/12/10 04:40:04;;;;;;;84.97;39.63;;;;;;;;;;2088796;28;20183;-54
2020/12/10 04:41:05;;;;;;;85.13;41.97;;;;;;;;;;2079096;28;20184;-52
2020/12/10 04:42:08;;;;;;;81.67;39.90;;;;;;;;;;2079686;28;20720;-51
2020/12/10 04:43:10;;;;;;;86.27;41.63;;;;;;;;;;2079959;28;20183;-57
2020/12/10 04:44:10;;;;;;;86.60;42.50;;;;;;;;;;2081782;28;20901;-58
2020/12/10 04:45:10;;;;;;;77.77;38.80;;;;;;;;;;2087331;28;20513;-55
2020/12/10 04:46:11;;;;;;;79.37;40.03;;;;;;;;;;2089866;28;20167;-53
2020/12/10 04:47:12;;;;;;;83.87;40.50;;;;;;;;;;2087125;28;20592;-57
2020/12/10 04:48:12;;;;;;;79.53;40.33;;;;;;;;;;2090514;28;20199;-55
2020/12/10 04:49:13;;;;;;;82.63;40.73;;;;;;;;;;2090412;28;20179;-57
2020/12/10 04:50:19;;;;;;;81.27;40.97;;;;;;;;;;2089882;28;20172;-58
2020/12/10 04:51:20;;;;;;;77.60;38.97;;;;;;;;;;2091076;28;20258;-55
2020/12/10 04:52:22;;;;;;;89.40;40.10;;;;;;;;;;2090012;28;20469;-55
2020/12/10 04:53:23;;;;;;;88.13;40.30;;;;;;;;;;2088626;28;20179;-53
2020/12/10 04:54:23;;;;;;;84.60;40.07;;;;;;;;;;2090010;28;20270;-55
2020/12/10 04:55:24;;;;;;;91.10;41.07;;;;;;;;;;2085478;28;20188;-52
2020/12/10 04:56:24;;;;;;;98.07;42.77;;;;;;;;;;2089694;28;20203;-55
2020/12/10 04:57:25;;;;;;;96.60;43.60;;;;;;;;;;2087609;28;20199;-52
2020/12/10 04:58:25;;;;;;;99.83;40.77;;;;;;;;;;2090184;28;20210;-56
2020/12/10 04:59:26;;;;;;;98.90;43.73;;;;;;;;;;2085222;28;20234;-56
2020/12/10 05:00:27;;;;;;;95.90;44.03;;;;;;;;;;2087013;28;20727;-54
2020/12/10 05:01:27;;;;;;;96.47;43.00;;;;;;;;;;2089975;28;20210;-52
2020/12/10 05:02:28;;;;;;;88.30;41.37;;;;;;;;;;2087091;28;20172;-53
2020/12/10 05:03:29;;;;;;;92.93;41.97;;;;;;;;;;2088118;28;20176;-56
2020/12/10 05:04:29;;;;;;;92.37;42.07;;;;;;;;;;2087720;28;20175;-54
2020/12/10 05:05:30;;;;;;;90.80;41.30;;;;;;;;;;2088403;28;20853;-53
2020/12/10 05:06:31;;;;;;;88.97;42.33;;;;;;;;;;2079816;28;20704;-55
2020/12/10 05:07:38;;;;;;;89.33;40.80;;;;;;;;;;2079126;28;20188;-56
2020/12/10 05:08:38;;;;;;;92.97;41.77;;;;;;;;;;2089677;28;20182;-58
2020/12/10 05:09:38;;;;;;;90.73;42.90;;;;;;;;;;2090082;28;20180;-54
2020/12/10 05:10:42;;;;;;;87.97;41.63;;;;;;;;;;2086296;28;20183;-56
2020/12/10 05:11:43;;;;;;;98.90;44.33;;;;;;;;;;2079132;28;20237;-52
2020/12/10 05:12:44;;;;;;;89.80;42.43;;;;;;;;;;2080691;28;20214;-57
2020/12/10 05:13:53;;;;;;;90.97;43.37;;;;;;;;;;2076279;28;20196;-52
2020/12/10 05:14:53;;;;;;;97.03;43.03;;;;;;;;;;2080666;28;20425;-55
2020/12/10 05:15:53;;;;;;;100.77;44.50;;;;;;;;;;2077916;28;20597;-54
2020/12/10 05:17:15;;;;;;;87.50;41.57;;;;;;;;;;2071188;28;20208;-54
2020/12/10 05:18:15;;;;;;;87.87;41.03;;;;;;;;;;2081081;28;20180;-58
2020/12/10 05:19:17;;;;;;;103.97;43.53;;;;;;;;;;2086080;28;20203;-53
2020/12/10 05:20:17;;;;;;;93.80;42.93;;;;;;;;;;2088931;28;20198;-55
2020/12/10 05:21:17;;;;;;;95.80;44.07;;;;;;;;;;2088947;28;20201;-54
2020/12/10 05:22:17;;;;;;;106.13;44.03;;;;;;;;;;2083797;28;20614;-56
2020/12/10 05:23:35;;;;;;;107.73;45.70;;;;;;;;;;2088031;28;20223;-57
2020/12/10 05:24:36;;;;;;;100.20;43.23;;;;;;;;;;2090207;28;20170;-59
2020/12/10 05:25:45;;;;;;;95.20;45.10;;;;;;;;;;2090423;28;20198;-53
2020/12/10 05:26:45;;;;;;;90.07;43.17;;;;;;;;;;2086169;28;20212;-56
2020/12/10 05:27:58;;;;;;;95.23;42.70;;;;;;;;;;2075046;28;20176;-56
2020/12/10 05:28:58;;;;;;;86.87;43.07;;;;;;;;;;2078963;28;20207;-53
2020/12/10 05:29:58;;;;;;;96.77;43.10;;;;;;;;;;2088941;28;20705;-53
2020/12/10 05:31:12;;;;;;;89.77;42.43;;;;;;;;;;2087355;28;20187;-57
2020/12/10 05:32:45;;;;;;;86.43;42.77;;;;;;;;;;2083536;28;20195;-54
2020/12/10 05:33:55;;;;;;;91.17;41.57;;;;;;;;;;2054344;28;20548;-52
2020/12/10 05:34:55;;;;;;;101.10;43.53;;;;;;;;;;2082204;28;20204;-54
2020/12/10 05:36:11;;;;;;;88.33;40.47;;;;;;;;;;2089436;28;20176;-58
2020/12/10 05:37:25;;;;;;;89.60;39.83;;;;;;;;;;2077456;28;20177;-53
2020/12/10 05:38:25;;;;;;;98.67;43.50;;;;;;;;;;2083044;28;20417;-57
2020/12/10 05:39:25;;;;;;;91.17;42.77;;;;;;;;;;2089201;28;20184;-53
2020/12/10 05:40:26;;;;;;;86.83;41.87;;;;;;;;;;2085059;28;20267;-55
2020/12/10 05:41:26;;;;;;;99.77;43.37;;;;;;;;;;2090183;28;20210;-54
2020/12/10 05:42:40;;;;;;;94.30;42.57;;;;;;;;;;2087257;28;20179;-56
2020/12/10 05:43:40;;;;;;;103.93;42.83;;;;;;;;;;2088186;28;20252;-52
2020/12/10 05:44:41;;;;;;;96.27;43.27;;;;;;;;;;2090249;28;20188;-57
2020/12/10 05:45:41;;;;;;;98.27;45.03;;;;;;;;;;2089437;28;20183;-55
2020/12/10 05:46:42;;;;;;;98.00;43.17;;;;;;;;;;2083192;28;20238;-56
2020/12/10 05:47:48;;;;;;;93.80;43.10;;;;;;;;;;2079888;28;20180;-56
2020/12/10 05:48:49;;;;;;;94.60;43.27;;;;;;;;;;2092153;28;20182;-59
2020/12/10 05:49:49;;;;;;;94.30;43.37;;;;;;;;;;2092884;28;20182;-60
2020/12/10 05:50:50;;;;;;;93.80;43.67;;;;;;;;;;2091813;28;20186;-56
2020/12/10 05:51:50;;;;;;;92.00;42.23;;;;;;;;;;2092068;28;20183;-59
2020/12/10 05:53:07;;;;;;;99.83;44.93;;;;;;;;;;2091180;28;20648;-59
2020/12/10 05:54:09;;;;;;;98.83;44.57;;;;;;;;;;2088121;28;20187;-56
2020/12/10 05:55:09;;;;;;;99.77;44.47;;;;;;;;;;2089372;28;20501;-59